sensor_id;sensor_type;location;lat;lon;timestamp;P1;durP1;ratioP1;P2;durP2;ratioP2
66384;SDS011;53426;55.872;37.462;2023-11-22T00:00:12;6.20;;;3.88;;
66384;SDS011;53426;55.872;37.462;2023-11-22T00:02:39;5.93;;;3.42;;
66384;SDS011;53426;55.872;37.462;2023-11-22T00:05:05;4.10;;;3.15;;
66384;SDS011;53426;55.872;37.462;2023-11-22T00:07:32;4.88;;;3.40;;
66384;SDS011;53426;55.872;37.462;2023-11-22T00:09:58;6.88;;;4.10;;
66384;SDS011;53426;55.872;37.462;2023-11-22T00:12:24;4.53;;;3.63;;
66384;SDS011;53426;55.872;37.462;2023-11-22T00:14:50;4.32;;;3.65;;
66384;SDS011;53426;55.872;37.462;2023-11-22T00:17:18;5.68;;;4.13;;
66384;SDS011;53426;55.872;37.462;2023-11-22T00:19:45;4.78;;;3.15;;
66384;SDS011;53426;55.872;37.462;2023-11-22T00:22:13;4.25;;;3.65;;
66384;SDS011;53426;55.872;37.462;2023-11-22T00:24:40;4.40;;;3.97;;
66384;SDS011;53426;55.872;37.462;2023-11-22T00:27:07;4.82;;;3.25;;
66384;SDS011;53426;55.872;37.462;2023-11-22T00:29:33;9.57;;;3.75;;
66384;SDS011;53426;55.872;37.462;2023-11-22T00:32:00;4.95;;;4.15;;
66384;SDS011;53426;55.872;37.462;2023-11-22T00:34:26;5.10;;;3.28;;
66384;SDS011;53426;55.872;37.462;2023-11-22T00:36:52;7.97;;;4.80;;
66384;SDS011;53426;55.872;37.462;2023-11-22T00:39:18;4.05;;;2.95;;
66384;SDS011;53426;55.872;37.462;2023-11-22T00:41:45;6.65;;;4.35;;
66384;SDS011;53426;55.872;37.462;2023-11-22T00:44:11;5.50;;;4.32;;
66384;SDS011;53426;55.872;37.462;2023-11-22T00:46:37;6.68;;;4.53;;
66384;SDS011;53426;55.872;37.462;2023-11-22T00:49:03;6.55;;;4.45;;
66384;SDS011;53426;55.872;37.462;2023-11-22T00:51:30;6.22;;;3.72;;
66384;SDS011;53426;55.872;37.462;2023-11-22T00:53:59;8.45;;;3.42;;
66384;SDS011;53426;55.872;37.462;2023-11-22T00:56:25;4.40;;;3.30;;
66384;SDS011;53426;55.872;37.462;2023-11-22T00:58:56;6.78;;;4.47;;
66384;SDS011;53426;55.872;37.462;2023-11-22T01:01:25;7.50;;;4.57;;
66384;SDS011;53426;55.872;37.462;2023-11-22T01:03:52;4.38;;;3.53;;
66384;SDS011;53426;55.872;37.462;2023-11-22T01:06:18;9.60;;;4.82;;
66384;SDS011;53426;55.872;37.462;2023-11-22T01:08:44;7.30;;;4.40;;
66384;SDS011;53426;55.872;37.462;2023-11-22T01:11:10;5.18;;;3.80;;
66384;SDS011;53426;55.872;37.462;2023-11-22T01:13:36;7.43;;;5.03;;
66384;SDS011;53426;55.872;37.462;2023-11-22T01:16:06;2.33;;;1.70;;
66384;SDS011;53426;55.872;37.462;2023-11-22T01:18:34;4.22;;;3.42;;
66384;SDS011;53426;55.872;37.462;2023-11-22T01:21:00;5.90;;;3.75;;
66384;SDS011;53426;55.872;37.462;2023-11-22T01:23:26;5.60;;;3.63;;
66384;SDS011;53426;55.872;37.462;2023-11-22T01:25:53;5.57;;;3.92;;
66384;SDS011;53426;55.872;37.462;2023-11-22T01:28:19;8.57;;;4.03;;
66384;SDS011;53426;55.872;37.462;2023-11-22T01:30:45;5.72;;;4.55;;
66384;SDS011;53426;55.872;37.462;2023-11-22T01:33:11;3.25;;;2.47;;
66384;SDS011;53426;55.872;37.462;2023-11-22T01:35:38;5.72;;;3.60;;
66384;SDS011;53426;55.872;37.462;2023-11-22T01:38:04;4.70;;;4.18;;
66384;SDS011;53426;55.872;37.462;2023-11-22T01:40:30;3.33;;;2.83;;
66384;SDS011;53426;55.872;37.462;2023-11-22T01:42:57;4.28;;;3.42;;
66384;SDS011;53426;55.872;37.462;2023-11-22T01:45:23;4.00;;;3.35;;
66384;SDS011;53426;55.872;37.462;2023-11-22T01:47:50;4.68;;;3.45;;
66384;SDS011;53426;55.872;37.462;2023-11-22T01:50:17;5.82;;;3.88;;
66384;SDS011;53426;55.872;37.462;2023-11-22T01:52:45;5.85;;;3.53;;
66384;SDS011;53426;55.872;37.462;2023-11-22T01:55:12;6.28;;;3.08;;
66384;SDS011;53426;55.872;37.462;2023-11-22T01:57:39;5.03;;;3.45;;
66384;SDS011;53426;55.872;37.462;2023-11-22T02:00:05;3.75;;;3.35;;
66384;SDS011;53426;55.872;37.462;2023-11-22T02:02:40;4.28;;;3.60;;
66384;SDS011;53426;55.872;37.462;2023-11-22T02:05:08;3.72;;;3.33;;
66384;SDS011;53426;55.872;37.462;2023-11-22T02:07:37;6.18;;;3.63;;
66384;SDS011;53426;55.872;37.462;2023-11-22T02:10:06;11.40;;;2.72;;
66384;SDS011;53426;55.872;37.462;2023-11-22T02:12:33;4.35;;;3.00;;
66384;SDS011;53426;55.872;37.462;2023-11-22T02:15:03;2.17;;;2.08;;
66384;SDS011;53426;55.872;37.462;2023-11-22T02:17:34;5.60;;;4.03;;
66384;SDS011;53426;55.872;37.462;2023-11-22T02:20:02;4.57;;;3.30;;
66384;SDS011;53426;55.872;37.462;2023-11-22T02:22:32;3.60;;;2.95;;
66384;SDS011;53426;55.872;37.462;2023-11-22T02:24:58;4.63;;;3.38;;
66384;SDS011;53426;55.872;37.462;2023-11-22T02:27:24;4.05;;;3.20;;
66384;SDS011;53426;55.872;37.462;2023-11-22T02:29:50;5.25;;;3.67;;
66384;SDS011;53426;55.872;37.462;2023-11-22T02:32:16;5.18;;;2.63;;
66384;SDS011;53426;55.872;37.462;2023-11-22T02:34:42;4.60;;;3.33;;
66384;SDS011;53426;55.872;37.462;2023-11-22T02:37:08;5.18;;;3.80;;
66384;SDS011;53426;55.872;37.462;2023-11-22T02:39:42;7.20;;;3.35;;
66384;SDS011;53426;55.872;37.462;2023-11-22T02:42:21;5.10;;;3.72;;
66384;SDS011;53426;55.872;37.462;2023-11-22T02:44:47;4.18;;;3.50;;
66384;SDS011;53426;55.872;37.462;2023-11-22T02:47:15;4.25;;;3.60;;
66384;SDS011;53426;55.872;37.462;2023-11-22T02:49:42;3.30;;;3.00;;
66384;SDS011;53426;55.872;37.462;2023-11-22T02:52:11;5.28;;;2.78;;
66384;SDS011;53426;55.872;37.462;2023-11-22T02:54:43;5.53;;;3.25;;
66384;SDS011;53426;55.872;37.462;2023-11-22T02:57:14;7.45;;;4.22;;
66384;SDS011;53426;55.872;37.462;2023-11-22T02:59:41;5.32;;;3.42;;
66384;SDS011;53426;55.872;37.462;2023-11-22T03:02:08;6.10;;;4.20;;
66384;SDS011;53426;55.872;37.462;2023-11-22T03:04:33;3.83;;;3.00;;
66384;SDS011;53426;55.872;37.462;2023-11-22T03:06:59;5.25;;;3.22;;
66384;SDS011;53426;55.872;37.462;2023-11-22T03:09:25;3.13;;;2.50;;
66384;SDS011;53426;55.872;37.462;2023-11-22T03:11:55;4.47;;;3.72;;
66384;SDS011;53426;55.872;37.462;2023-11-22T03:14:22;5.90;;;3.33;;
66384;SDS011;53426;55.872;37.462;2023-11-22T03:16:47;3.95;;;3.30;;
66384;SDS011;53426;55.872;37.462;2023-11-22T03:19:14;6.40;;;4.18;;
66384;SDS011;53426;55.872;37.462;2023-11-22T03:21:42;6.50;;;3.30;;
66384;SDS011;53426;55.872;37.462;2023-11-22T03:24:10;5.72;;;4.40;;
66384;SDS011;53426;55.872;37.462;2023-11-22T03:26:36;5.03;;;3.33;;
66384;SDS011;53426;55.872;37.462;2023-11-22T03:29:04;6.38;;;3.65;;
66384;SDS011;53426;55.872;37.462;2023-11-22T03:31:30;5.13;;;4.10;;
66384;SDS011;53426;55.872;37.462;2023-11-22T03:33:56;6.18;;;3.97;;
66384;SDS011;53426;55.872;37.462;2023-11-22T03:36:23;5.32;;;4.45;;
66384;SDS011;53426;55.872;37.462;2023-11-22T03:38:49;4.32;;;3.35;;
66384;SDS011;53426;55.872;37.462;2023-11-22T03:41:16;5.63;;;4.00;;
66384;SDS011;53426;55.872;37.462;2023-11-22T03:43:43;5.68;;;4.07;;
66384;SDS011;53426;55.872;37.462;2023-11-22T03:46:09;7.63;;;3.35;;
66384;SDS011;53426;55.872;37.462;2023-11-22T03:48:41;4.93;;;3.35;;
66384;SDS011;53426;55.872;37.462;2023-11-22T03:51:07;4.90;;;2.60;;
66384;SDS011;53426;55.872;37.462;2023-11-22T03:53:35;5.95;;;3.78;;
66384;SDS011;53426;55.872;37.462;2023-11-22T03:56:02;4.47;;;3.20;;
66384;SDS011;53426;55.872;37.462;2023-11-22T03:58:28;7.97;;;4.25;;
66384;SDS011;53426;55.872;37.462;2023-11-22T04:00:54;5.63;;;3.83;;
66384;SDS011;53426;55.872;37.462;2023-11-22T04:03:20;6.28;;;4.28;;
66384;SDS011;53426;55.872;37.462;2023-11-22T04:05:46;5.45;;;4.20;;
66384;SDS011;53426;55.872;37.462;2023-11-22T04:08:12;4.78;;;4.28;;
66384;SDS011;53426;55.872;37.462;2023-11-22T04:10:38;7.13;;;4.65;;
66384;SDS011;53426;55.872;37.462;2023-11-22T04:13:04;7.57;;;4.13;;
66384;SDS011;53426;55.872;37.462;2023-11-22T04:15:30;6.15;;;4.50;;
66384;SDS011;53426;55.872;37.462;2023-11-22T04:18:00;5.90;;;4.10;;
66384;SDS011;53426;55.872;37.462;2023-11-22T04:20:26;6.75;;;3.90;;
66384;SDS011;53426;55.872;37.462;2023-11-22T04:22:52;5.70;;;3.83;;
66384;SDS011;53426;55.872;37.462;2023-11-22T04:25:18;5.90;;;3.40;;
66384;SDS011;53426;55.872;37.462;2023-11-22T04:27:44;2.58;;;2.38;;
66384;SDS011;53426;55.872;37.462;2023-11-22T04:30:10;5.10;;;2.65;;
66384;SDS011;53426;55.872;37.462;2023-11-22T04:32:42;10.00;;;3.83;;
66384;SDS011;53426;55.872;37.462;2023-11-22T04:35:10;4.10;;;3.10;;
66384;SDS011;53426;55.872;37.462;2023-11-22T04:37:37;4.88;;;3.30;;
66384;SDS011;53426;55.872;37.462;2023-11-22T04:40:03;3.67;;;2.70;;
66384;SDS011;53426;55.872;37.462;2023-11-22T04:42:40;3.05;;;1.85;;
66384;SDS011;53426;55.872;37.462;2023-11-22T04:45:06;5.97;;;3.17;;
66384;SDS011;53426;55.872;37.462;2023-11-22T04:47:32;8.40;;;3.35;;
66384;SDS011;53426;55.872;37.462;2023-11-22T04:49:58;4.63;;;2.50;;
66384;SDS011;53426;55.872;37.462;2023-11-22T04:52:24;4.32;;;3.17;;
66384;SDS011;53426;55.872;37.462;2023-11-22T04:54:50;3.85;;;2.88;;
66384;SDS011;53426;55.872;37.462;2023-11-22T04:57:17;3.58;;;2.47;;
66384;SDS011;53426;55.872;37.462;2023-11-22T04:59:45;6.95;;;3.38;;
66384;SDS011;53426;55.872;37.462;2023-11-22T05:02:11;3.22;;;2.92;;
66384;SDS011;53426;55.872;37.462;2023-11-22T05:04:37;5.45;;;3.22;;
66384;SDS011;53426;55.872;37.462;2023-11-22T05:07:04;3.97;;;3.13;;
66384;SDS011;53426;55.872;37.462;2023-11-22T05:09:30;4.97;;;3.42;;
66384;SDS011;53426;55.872;37.462;2023-11-22T05:11:56;4.55;;;3.10;;
66384;SDS011;53426;55.872;37.462;2023-11-22T05:14:22;3.03;;;2.30;;
66384;SDS011;53426;55.872;37.462;2023-11-22T05:16:49;9.20;;;4.28;;
66384;SDS011;53426;55.872;37.462;2023-11-22T05:19:16;3.83;;;2.85;;
66384;SDS011;53426;55.872;37.462;2023-11-22T05:21:42;4.72;;;3.03;;
66384;SDS011;53426;55.872;37.462;2023-11-22T05:24:10;7.22;;;3.40;;
66384;SDS011;53426;55.872;37.462;2023-11-22T05:29:30;10.60;;;2.80;;
66384;SDS011;53426;55.872;37.462;2023-11-22T05:31:56;2.78;;;2.30;;
66384;SDS011;53426;55.872;37.462;2023-11-22T05:34:22;3.08;;;2.78;;
66384;SDS011;53426;55.872;37.462;2023-11-22T05:39:40;2.17;;;1.85;;
66384;SDS011;53426;55.872;37.462;2023-11-22T05:42:05;3.45;;;2.47;;
66384;SDS011;53426;55.872;37.462;2023-11-22T05:44:32;2.20;;;1.85;;
66384;SDS011;53426;55.872;37.462;2023-11-22T05:46:58;4.03;;;2.42;;
66384;SDS011;53426;55.872;37.462;2023-11-22T05:49:24;4.43;;;2.42;;
66384;SDS011;53426;55.872;37.462;2023-11-22T05:51:49;1.48;;;1.38;;
66384;SDS011;53426;55.872;37.462;2023-11-22T05:54:16;2.20;;;1.95;;
66384;SDS011;53426;55.872;37.462;2023-11-22T05:56:43;2.58;;;2.35;;
66384;SDS011;53426;55.872;37.462;2023-11-22T05:59:12;1.73;;;1.63;;
66384;SDS011;53426;55.872;37.462;2023-11-22T06:01:39;2.17;;;1.98;;
66384;SDS011;53426;55.872;37.462;2023-11-22T06:04:05;7.40;;;2.40;;
66384;SDS011;53426;55.872;37.462;2023-11-22T06:06:35;3.03;;;2.38;;
66384;SDS011;53426;55.872;37.462;2023-11-22T06:09:03;2.22;;;2.08;;
66384;SDS011;53426;55.872;37.462;2023-11-22T06:11:31;2.50;;;2.20;;
66384;SDS011;53426;55.872;37.462;2023-11-22T06:13:57;2.42;;;2.00;;
66384;SDS011;53426;55.872;37.462;2023-11-22T06:16:24;2.25;;;2.05;;
66384;SDS011;53426;55.872;37.462;2023-11-22T06:19:00;2.45;;;2.10;;
66384;SDS011;53426;55.872;37.462;2023-11-22T06:21:26;3.35;;;2.40;;
66384;SDS011;53426;55.872;37.462;2023-11-22T06:23:53;2.00;;;1.80;;
66384;SDS011;53426;55.872;37.462;2023-11-22T06:26:23;1.67;;;1.55;;
66384;SDS011;53426;55.872;37.462;2023-11-22T06:28:50;1.70;;;1.60;;
66384;SDS011;53426;55.872;37.462;2023-11-22T06:31:16;2.28;;;1.92;;
66384;SDS011;53426;55.872;37.462;2023-11-22T06:33:41;1.40;;;1.30;;
66384;SDS011;53426;55.872;37.462;2023-11-22T06:36:10;1.90;;;1.77;;
66384;SDS011;53426;55.872;37.462;2023-11-22T06:38:40;2.40;;;1.60;;
66384;SDS011;53426;55.872;37.462;2023-11-22T06:41:06;1.52;;;1.42;;
66384;SDS011;53426;55.872;37.462;2023-11-22T06:43:32;1.42;;;1.27;;
66384;SDS011;53426;55.872;37.462;2023-11-22T06:45:58;2.15;;;1.55;;
66384;SDS011;53426;55.872;37.462;2023-11-22T06:48:24;2.78;;;1.63;;
66384;SDS011;53426;55.872;37.462;2023-11-22T06:50:51;2.13;;;1.75;;
66384;SDS011;53426;55.872;37.462;2023-11-22T06:53:19;2.28;;;1.63;;
66384;SDS011;53426;55.872;37.462;2023-11-22T06:55:45;1.65;;;1.55;;
66384;SDS011;53426;55.872;37.462;2023-11-22T06:58:11;2.08;;;1.67;;
66384;SDS011;53426;55.872;37.462;2023-11-22T07:00:39;2.85;;;1.70;;
66384;SDS011;53426;55.872;37.462;2023-11-22T07:03:06;2.70;;;2.17;;
66384;SDS011;53426;55.872;37.462;2023-11-22T07:05:33;3.28;;;1.73;;
66384;SDS011;53426;55.872;37.462;2023-11-22T07:07:59;3.50;;;1.92;;
66384;SDS011;53426;55.872;37.462;2023-11-22T07:10:25;3.13;;;2.00;;
66384;SDS011;53426;55.872;37.462;2023-11-22T07:12:52;3.22;;;2.33;;
66384;SDS011;53426;55.872;37.462;2023-11-22T07:15:17;3.72;;;3.00;;
66384;SDS011;53426;55.872;37.462;2023-11-22T07:17:43;1.83;;;1.70;;
66384;SDS011;53426;55.872;37.462;2023-11-22T07:20:10;1.83;;;1.73;;
66384;SDS011;53426;55.872;37.462;2023-11-22T07:22:42;2.67;;;2.30;;
66384;SDS011;53426;55.872;37.462;2023-11-22T07:25:09;2.25;;;1.75;;
66384;SDS011;53426;55.872;37.462;2023-11-22T07:27:44;2.53;;;2.20;;
66384;SDS011;53426;55.872;37.462;2023-11-22T07:30:12;1.70;;;1.60;;
66384;SDS011;53426;55.872;37.462;2023-11-22T07:32:40;1.70;;;1.60;;
66384;SDS011;53426;55.872;37.462;2023-11-22T07:35:06;1.90;;;1.80;;
66384;SDS011;53426;55.872;37.462;2023-11-22T07:37:34;1.70;;;1.60;;
66384;SDS011;53426;55.872;37.462;2023-11-22T07:40:02;2.13;;;1.45;;
66384;SDS011;53426;55.872;37.462;2023-11-22T07:42:31;1.70;;;1.45;;
66384;SDS011;53426;55.872;37.462;2023-11-22T07:44:58;4.72;;;2.00;;
66384;SDS011;53426;55.872;37.462;2023-11-22T07:47:24;5.03;;;2.50;;
66384;SDS011;53426;55.872;37.462;2023-11-22T07:49:50;11.68;;;2.50;;
66384;SDS011;53426;55.872;37.462;2023-11-22T07:52:27;2.42;;;1.98;;
66384;SDS011;53426;55.872;37.462;2023-11-22T07:58:49;2.42;;;1.88;;
66384;SDS011;53426;55.872;37.462;2023-11-22T08:01:15;4.57;;;2.22;;
66384;SDS011;53426;55.872;37.462;2023-11-22T08:03:57;2.10;;;1.90;;
66384;SDS011;53426;55.872;37.462;2023-11-22T08:06:23;1.80;;;1.70;;
66384;SDS011;53426;55.872;37.462;2023-11-22T08:08:49;3.75;;;2.58;;
66384;SDS011;53426;55.872;37.462;2023-11-22T08:11:14;4.72;;;2.50;;
66384;SDS011;53426;55.872;37.462;2023-11-22T08:14:34;11.05;;;1.90;;
66384;SDS011;53426;55.872;37.462;2023-11-22T08:17:04;2.38;;;1.85;;
66384;SDS011;53426;55.872;37.462;2023-11-22T08:19:32;1.95;;;1.85;;
66384;SDS011;53426;55.872;37.462;2023-11-22T08:21:59;4.18;;;1.92;;
66384;SDS011;53426;55.872;37.462;2023-11-22T08:24:33;3.58;;;2.25;;
66384;SDS011;53426;55.872;37.462;2023-11-22T08:30:14;1.98;;;1.88;;
66384;SDS011;53426;55.872;37.462;2023-11-22T08:36:00;2.70;;;2.05;;
66384;SDS011;53426;55.872;37.462;2023-11-22T08:38:30;4.07;;;2.67;;
66384;SDS011;53426;55.872;37.462;2023-11-22T08:41:06;3.40;;;2.17;;
66384;SDS011;53426;55.872;37.462;2023-11-22T08:43:39;2.47;;;2.25;;
66384;SDS011;53426;55.872;37.462;2023-11-22T08:46:06;3.08;;;2.53;;
66384;SDS011;53426;55.872;37.462;2023-11-22T08:48:34;3.50;;;2.72;;
66384;SDS011;53426;55.872;37.462;2023-11-22T08:51:00;3.15;;;2.20;;
66384;SDS011;53426;55.872;37.462;2023-11-22T08:53:29;2.40;;;2.20;;
66384;SDS011;53426;55.872;37.462;2023-11-22T08:55:56;5.65;;;2.90;;
66384;SDS011;53426;55.872;37.462;2023-11-22T08:58:23;2.20;;;2.00;;
66384;SDS011;53426;55.872;37.462;2023-11-22T09:00:49;2.60;;;2.40;;
66384;SDS011;53426;55.872;37.462;2023-11-22T09:03:15;4.07;;;2.33;;
66384;SDS011;53426;55.872;37.462;2023-11-22T09:05:43;2.47;;;2.28;;
66384;SDS011;53426;55.872;37.462;2023-11-22T09:08:09;1.98;;;1.88;;
66384;SDS011;53426;55.872;37.462;2023-11-22T09:10:39;2.65;;;2.10;;
66384;SDS011;53426;55.872;37.462;2023-11-22T09:13:10;3.45;;;2.05;;
66384;SDS011;53426;55.872;37.462;2023-11-22T09:15:37;2.15;;;1.95;;
66384;SDS011;53426;55.872;37.462;2023-11-22T09:18:07;3.60;;;1.75;;
66384;SDS011;53426;55.872;37.462;2023-11-22T09:20:33;2.92;;;2.05;;
66384;SDS011;53426;55.872;37.462;2023-11-22T09:22:59;4.40;;;2.40;;
66384;SDS011;53426;55.872;37.462;2023-11-22T09:25:27;2.63;;;2.40;;
66384;SDS011;53426;55.872;37.462;2023-11-22T09:27:55;2.60;;;2.40;;
66384;SDS011;53426;55.872;37.462;2023-11-22T09:30:27;4.50;;;2.30;;
66384;SDS011;53426;55.872;37.462;2023-11-22T09:33:02;3.58;;;2.47;;
66384;SDS011;53426;55.872;37.462;2023-11-22T09:35:29;7.68;;;1.88;;
66384;SDS011;53426;55.872;37.462;2023-11-22T09:37:57;2.97;;;2.55;;
66384;SDS011;53426;55.872;37.462;2023-11-22T09:40:28;2.13;;;1.92;;
66384;SDS011;53426;55.872;37.462;2023-11-22T09:43:02;2.40;;;2.20;;
66384;SDS011;53426;55.872;37.462;2023-11-22T09:45:29;4.68;;;2.15;;
66384;SDS011;53426;55.872;37.462;2023-11-22T09:47:56;20.95;;;2.80;;
66384;SDS011;53426;55.872;37.462;2023-11-22T09:50:31;4.90;;;2.00;;
66384;SDS011;53426;55.872;37.462;2023-11-22T09:53:02;2.20;;;2.00;;
66384;SDS011;53426;55.872;37.462;2023-11-22T09:55:31;3.70;;;1.90;;
66384;SDS011;53426;55.872;37.462;2023-11-22T09:57:59;2.50;;;2.20;;
66384;SDS011;53426;55.872;37.462;2023-11-22T10:00:28;2.25;;;2.05;;
66384;SDS011;53426;55.872;37.462;2023-11-22T10:02:56;2.60;;;2.17;;
66384;SDS011;53426;55.872;37.462;2023-11-22T10:05:23;2.25;;;2.05;;
66384;SDS011;53426;55.872;37.462;2023-11-22T10:07:50;3.85;;;2.63;;
66384;SDS011;53426;55.872;37.462;2023-11-22T10:10:17;2.42;;;2.22;;
66384;SDS011;53426;55.872;37.462;2023-11-22T10:12:50;3.60;;;2.78;;
66384;SDS011;53426;55.872;37.462;2023-11-22T10:15:16;4.55;;;2.60;;
66384;SDS011;53426;55.872;37.462;2023-11-22T10:17:47;3.17;;;2.53;;
66384;SDS011;53426;55.872;37.462;2023-11-22T10:20:22;2.42;;;1.83;;
66384;SDS011;53426;55.872;37.462;2023-11-22T10:23:11;2.50;;;2.30;;
66384;SDS011;53426;55.872;37.462;2023-11-22T10:25:44;2.58;;;2.25;;
66384;SDS011;53426;55.872;37.462;2023-11-22T10:28:19;2.95;;;2.17;;
66384;SDS011;53426;55.872;37.462;2023-11-22T10:30:46;2.65;;;2.42;;
66384;SDS011;53426;55.872;37.462;2023-11-22T10:33:14;2.95;;;2.55;;
66384;SDS011;53426;55.872;37.462;2023-11-22T10:35:44;6.82;;;2.35;;
66384;SDS011;53426;55.872;37.462;2023-11-22T10:38:14;2.55;;;2.35;;
66384;SDS011;53426;55.872;37.462;2023-11-22T10:40:44;3.25;;;2.47;;
66384;SDS011;53426;55.872;37.462;2023-11-22T10:43:16;2.67;;;2.30;;
66384;SDS011;53426;55.872;37.462;2023-11-22T10:45:43;3.40;;;2.25;;
66384;SDS011;53426;55.872;37.462;2023-11-22T10:48:16;4.95;;;3.22;;
66384;SDS011;53426;55.872;37.462;2023-11-22T10:50:43;4.20;;;2.50;;
66384;SDS011;53426;55.872;37.462;2023-11-22T10:53:11;4.40;;;2.42;;
66384;SDS011;53426;55.872;37.462;2023-11-22T10:55:46;2.78;;;2.30;;
66384;SDS011;53426;55.872;37.462;2023-11-22T10:58:15;2.75;;;1.92;;
66384;SDS011;53426;55.872;37.462;2023-11-22T11:00:42;2.33;;;2.13;;
66384;SDS011;53426;55.872;37.462;2023-11-22T11:03:17;6.30;;;2.92;;
66384;SDS011;53426;55.872;37.462;2023-11-22T11:05:52;2.90;;;2.60;;
66384;SDS011;53426;55.872;37.462;2023-11-22T11:08:24;4.45;;;2.00;;
66384;SDS011;53426;55.872;37.462;2023-11-22T11:10:55;4.13;;;2.80;;
66384;SDS011;53426;55.872;37.462;2023-11-22T11:13:23;4.10;;;2.47;;
66384;SDS011;53426;55.872;37.462;2023-11-22T11:15:50;2.50;;;2.22;;
66384;SDS011;53426;55.872;37.462;2023-11-22T11:18:19;3.53;;;2.55;;
66384;SDS011;53426;55.872;37.462;2023-11-22T11:20:52;4.07;;;2.35;;
66384;SDS011;53426;55.872;37.462;2023-11-22T11:23:21;5.10;;;1.92;;
66384;SDS011;53426;55.872;37.462;2023-11-22T11:25:49;3.95;;;2.72;;
66384;SDS011;53426;55.872;37.462;2023-11-22T11:28:16;5.93;;;1.95;;
66384;SDS011;53426;55.872;37.462;2023-11-22T11:30:43;2.85;;;2.35;;
66384;SDS011;53426;55.872;37.462;2023-11-22T11:33:12;2.00;;;1.80;;
66384;SDS011;53426;55.872;37.462;2023-11-22T11:35:48;1.95;;;1.85;;
66384;SDS011;53426;55.872;37.462;2023-11-22T11:38:20;3.00;;;1.98;;
66384;SDS011;53426;55.872;37.462;2023-11-22T11:40:47;2.95;;;2.00;;
66384;SDS011;53426;55.872;37.462;2023-11-22T11:43:14;2.20;;;2.00;;
66384;SDS011;53426;55.872;37.462;2023-11-22T11:45:42;1.95;;;1.77;;
66384;SDS011;53426;55.872;37.462;2023-11-22T11:48:16;2.35;;;1.92;;
66384;SDS011;53426;55.872;37.462;2023-11-22T11:50:43;1.98;;;1.67;;
66384;SDS011;53426;55.872;37.462;2023-11-22T11:53:09;1.85;;;1.45;;
66384;SDS011;53426;55.872;37.462;2023-11-22T11:55:38;1.60;;;1.50;;
66384;SDS011;53426;55.872;37.462;2023-11-22T11:58:06;3.22;;;2.22;;
66384;SDS011;53426;55.872;37.462;2023-11-22T12:00:38;2.45;;;2.05;;
66384;SDS011;53426;55.872;37.462;2023-11-22T12:03:07;5.50;;;2.28;;
66384;SDS011;53426;55.872;37.462;2023-11-22T12:05:37;3.13;;;2.47;;
66384;SDS011;53426;55.872;37.462;2023-11-22T12:08:04;2.97;;;2.33;;
66384;SDS011;53426;55.872;37.462;2023-11-22T12:10:31;2.85;;;2.17;;
66384;SDS011;53426;55.872;37.462;2023-11-22T12:12:58;4.22;;;2.75;;
66384;SDS011;53426;55.872;37.462;2023-11-22T12:15:25;3.00;;;2.70;;
66384;SDS011;53426;55.872;37.462;2023-11-22T12:17:51;5.72;;;2.95;;
66384;SDS011;53426;55.872;37.462;2023-11-22T12:20:20;3.00;;;2.53;;
66384;SDS011;53426;55.872;37.462;2023-11-22T12:22:48;4.22;;;2.30;;
66384;SDS011;53426;55.872;37.462;2023-11-22T12:25:16;2.85;;;2.55;;
66384;SDS011;53426;55.872;37.462;2023-11-22T12:27:44;4.38;;;2.17;;
66384;SDS011;53426;55.872;37.462;2023-11-22T12:30:33;2.95;;;2.00;;
66384;SDS011;53426;55.872;37.462;2023-11-22T12:33:04;2.08;;;1.67;;
66384;SDS011;53426;55.872;37.462;2023-11-22T12:35:33;2.92;;;2.42;;
66384;SDS011;53426;55.872;37.462;2023-11-22T12:38:00;5.45;;;2.45;;
66384;SDS011;53426;55.872;37.462;2023-11-22T12:40:29;3.70;;;2.67;;
66384;SDS011;53426;55.872;37.462;2023-11-22T12:43:00;2.10;;;1.90;;
66384;SDS011;53426;55.872;37.462;2023-11-22T12:45:28;12.02;;;2.95;;
66384;SDS011;53426;55.872;37.462;2023-11-22T12:47:56;4.88;;;2.55;;
66384;SDS011;53426;55.872;37.462;2023-11-22T12:50:37;3.22;;;1.95;;
66384;SDS011;53426;55.872;37.462;2023-11-22T12:53:11;2.72;;;2.10;;
66384;SDS011;53426;55.872;37.462;2023-11-22T12:55:42;2.90;;;2.15;;
66384;SDS011;53426;55.872;37.462;2023-11-22T12:58:15;3.17;;;2.20;;
66384;SDS011;53426;55.872;37.462;2023-11-22T13:00:43;6.25;;;2.83;;
66384;SDS011;53426;55.872;37.462;2023-11-22T13:03:14;2.90;;;2.45;;
66384;SDS011;53426;55.872;37.462;2023-11-22T13:05:41;3.53;;;2.85;;
66384;SDS011;53426;55.872;37.462;2023-11-22T13:08:13;2.75;;;2.55;;
66384;SDS011;53426;55.872;37.462;2023-11-22T13:10:45;4.78;;;2.70;;
66384;SDS011;53426;55.872;37.462;2023-11-22T13:13:14;3.35;;;2.58;;
66384;SDS011;53426;55.872;37.462;2023-11-22T13:15:40;7.40;;;3.03;;
66384;SDS011;53426;55.872;37.462;2023-11-22T13:18:06;2.53;;;2.33;;
66384;SDS011;53426;55.872;37.462;2023-11-22T13:20:34;4.05;;;2.80;;
66384;SDS011;53426;55.872;37.462;2023-11-22T13:23:01;4.00;;;2.70;;
66384;SDS011;53426;55.872;37.462;2023-11-22T13:25:28;5.10;;;2.63;;
66384;SDS011;53426;55.872;37.462;2023-11-22T13:27:55;2.47;;;2.28;;
66384;SDS011;53426;55.872;37.462;2023-11-22T13:30:24;3.95;;;2.88;;
66384;SDS011;53426;55.872;37.462;2023-11-22T13:32:57;3.17;;;2.67;;
66384;SDS011;53426;55.872;37.462;2023-11-22T13:40:44;4.00;;;3.13;;
66384;SDS011;53426;55.872;37.462;2023-11-22T13:43:14;7.50;;;3.78;;
66384;SDS011;53426;55.872;37.462;2023-11-22T13:45:44;4.80;;;3.25;;
66384;SDS011;53426;55.872;37.462;2023-11-22T13:48:10;4.28;;;3.20;;
66384;SDS011;53426;55.872;37.462;2023-11-22T13:50:36;11.40;;;3.88;;
66384;SDS011;53426;55.872;37.462;2023-11-22T13:53:03;6.95;;;4.20;;
66384;SDS011;53426;55.872;37.462;2023-11-22T13:55:29;3.90;;;3.50;;
66384;SDS011;53426;55.872;37.462;2023-11-22T13:57:57;6.45;;;3.20;;
66384;SDS011;53426;55.872;37.462;2023-11-22T14:00:25;4.75;;;3.30;;
66384;SDS011;53426;55.872;37.462;2023-11-22T14:02:56;2.92;;;2.25;;
66384;SDS011;53426;55.872;37.462;2023-11-22T14:05:23;5.25;;;3.72;;
66384;SDS011;53426;55.872;37.462;2023-11-22T14:07:50;6.38;;;3.08;;
66384;SDS011;53426;55.872;37.462;2023-11-22T14:10:18;5.45;;;4.32;;
66384;SDS011;53426;55.872;37.462;2023-11-22T14:12:45;7.63;;;4.22;;
66384;SDS011;53426;55.872;37.462;2023-11-22T14:15:14;4.25;;;2.97;;
66384;SDS011;53426;55.872;37.462;2023-11-22T14:17:41;8.70;;;3.78;;
66384;SDS011;53426;55.872;37.462;2023-11-22T14:20:10;6.93;;;4.90;;
66384;SDS011;53426;55.872;37.462;2023-11-22T14:22:38;6.07;;;4.18;;
66384;SDS011;53426;55.872;37.462;2023-11-22T14:25:05;5.20;;;4.10;;
66384;SDS011;53426;55.872;37.462;2023-11-22T14:27:39;9.05;;;4.13;;
66384;SDS011;53426;55.872;37.462;2023-11-22T14:30:07;6.43;;;4.25;;
66384;SDS011;53426;55.872;37.462;2023-11-22T14:32:35;9.82;;;5.32;;
66384;SDS011;53426;55.872;37.462;2023-11-22T14:35:04;6.53;;;4.38;;
66384;SDS011;53426;55.872;37.462;2023-11-22T14:37:32;8.93;;;4.25;;
66384;SDS011;53426;55.872;37.462;2023-11-22T14:43:02;5.28;;;4.00;;
66384;SDS011;53426;55.872;37.462;2023-11-22T14:45:30;6.13;;;4.50;;
66384;SDS011;53426;55.872;37.462;2023-11-22T14:47:58;8.80;;;4.78;;
66384;SDS011;53426;55.872;37.462;2023-11-22T14:50:28;8.13;;;5.50;;
66384;SDS011;53426;55.872;37.462;2023-11-22T14:52:54;11.15;;;4.85;;
66384;SDS011;53426;55.872;37.462;2023-11-22T14:55:19;8.57;;;4.65;;
66384;SDS011;53426;55.872;37.462;2023-11-22T14:57:48;6.93;;;5.25;;
66384;SDS011;53426;55.872;37.462;2023-11-22T15:00:16;14.27;;;5.95;;
66384;SDS011;53426;55.872;37.462;2023-11-22T15:02:42;8.32;;;5.38;;